createdAt,value
2023-02-05T00:00:11.223Z,44.64
2023-02-05T00:05:13.143Z,44.65
2023-02-05T00:10:15.253Z,44.49
2023-02-05T00:15:17.180Z,44.50
2023-02-05T00:20:19.246Z,44.41
2023-02-05T00:25:21.521Z,44.57
2023-02-05T00:30:23.565Z,44.68
2023-02-05T00:35:25.681Z,44.79
2023-02-05T00:40:27.469Z,44.85
2023-02-05T00:45:35.577Z,44.72
2023-02-05T00:50:37.994Z,44.53
2023-02-05T00:55:39.922Z,46.08
2023-02-05T01:00:41.964Z,45.81
2023-02-05T01:05:43.850Z,45.34
2023-02-05T01:10:48.495Z,45.37
2023-02-05T01:15:50.564Z,45.37
2023-02-05T01:20:52.683Z,45.29
2023-02-05T01:25:54.534Z,45.06
2023-02-05T01:30:56.756Z,44.91
2023-02-05T01:35:58.844Z,45.28
2023-02-05T01:41:00.971Z,44.87
2023-02-05T01:46:20.847Z,44.87
2023-02-05T01:51:23.650Z,44.98
2023-02-05T01:56:32.051Z,45.02
2023-02-05T02:01:37.931Z,45.07
2023-02-05T02:06:39.614Z,44.88
2023-02-05T02:11:43.690Z,44.67
2023-02-05T02:16:46.030Z,44.76
2023-02-05T02:22:09.679Z,44.63
2023-02-05T02:27:17.490Z,44.79
2023-02-05T02:32:30.051Z,44.68
2023-02-05T02:37:44.392Z,44.51
2023-02-05T02:42:53.665Z,44.68
2023-02-05T02:47:59.365Z,44.87
2023-02-05T02:53:09.802Z,45.03
2023-02-05T02:58:26.140Z,44.70
2023-02-05T03:03:32.352Z,44.79
2023-02-05T03:08:45.285Z,44.77
2023-02-05T03:13:48.328Z,44.58
2023-02-05T03:18:50.916Z,44.94
2023-02-05T03:23:52.855Z,44.64
2023-02-05T03:28:56.539Z,44.66
2023-02-05T03:34:26.142Z,44.75
2023-02-05T03:39:36.379Z,44.64
2023-02-05T03:44:50.052Z,44.83
2023-02-05T03:50:07.693Z,44.53
2023-02-05T03:55:20.476Z,44.86
2023-02-05T04:00:24.647Z,44.86
2023-02-05T04:05:26.498Z,44.72
2023-02-05T04:10:28.203Z,44.84
2023-02-05T04:15:29.929Z,44.65
2023-02-05T04:20:31.942Z,44.64
2023-02-05T04:25:34.309Z,44.36
2023-02-05T04:30:36.455Z,44.15
2023-02-05T04:35:38.404Z,44.43
2023-02-05T04:40:40.458Z,44.38
2023-02-05T04:45:42.234Z,44.13
2023-02-05T04:50:44.393Z,44.16
2023-02-05T04:55:46.428Z,44.28
2023-02-05T05:00:48.437Z,44.14
2023-02-05T05:05:50.530Z,44.11
2023-02-05T05:10:52.354Z,43.97
2023-02-05T05:15:57.362Z,44.18
2023-02-05T05:20:59.689Z,43.90
2023-02-05T05:26:07.857Z,43.95
2023-02-05T05:31:13.846Z,44.25
2023-02-05T05:36:16.343Z,43.91
2023-02-05T05:41:40.705Z,43.86
2023-02-05T05:46:42.625Z,44.12
2023-02-05T05:51:44.570Z,43.87
2023-02-05T05:56:46.617Z,43.91
2023-02-05T06:01:48.434Z,44.09
2023-02-05T06:06:50.287Z,43.99
2023-02-05T06:11:52.345Z,44.25
2023-02-05T06:16:56.025Z,43.96
2023-02-05T06:21:58.116Z,43.91
2023-02-05T06:27:00.002Z,43.77
2023-02-05T06:32:01.905Z,44.05
2023-02-05T06:37:04.151Z,43.76
2023-02-05T06:42:06.619Z,43.64
2023-02-05T06:47:08.568Z,43.56
2023-02-05T06:52:10.451Z,43.76
2023-02-05T06:57:12.551Z,43.55
2023-02-05T07:02:14.981Z,43.79
2023-02-05T07:07:17.528Z,43.81
2023-02-05T07:12:20.057Z,43.88
2023-02-05T07:17:22.389Z,43.95
2023-02-05T07:22:24.847Z,43.67
2023-02-05T07:27:27.106Z,43.81
2023-02-05T07:32:29.007Z,43.51
2023-02-05T07:37:31.078Z,44.06
2023-02-05T07:42:33.054Z,44.51
2023-02-05T07:47:35.137Z,44.15
2023-02-05T07:52:37.274Z,44.05
2023-02-05T07:57:39.150Z,43.77
2023-02-05T08:02:41.392Z,43.95
2023-02-05T08:07:43.201Z,43.83
2023-02-05T08:12:44.967Z,43.50
2023-02-05T08:17:46.833Z,43.18
2023-02-05T08:22:48.906Z,42.99
2023-02-05T08:27:50.866Z,42.75
2023-02-05T08:32:52.831Z,42.56
2023-02-05T08:37:54.726Z,42.22
2023-02-05T08:42:58.160Z,42.15
2023-02-05T08:48:00.200Z,44.30
2023-02-05T08:53:02.616Z,43.14
2023-02-05T08:58:04.666Z,43.33
2023-02-05T09:03:06.895Z,42.99
2023-02-05T09:08:08.750Z,42.62
2023-02-05T09:13:11.438Z,42.12
2023-02-05T09:18:13.858Z,43.18
2023-02-05T09:23:17.425Z,43.71
2023-02-05T09:28:19.617Z,42.78
2023-02-05T09:33:21.655Z,42.25
2023-02-05T09:38:23.450Z,42.22
2023-02-05T09:43:44.345Z,43.12
2023-02-05T09:49:20.697Z,43.01
2023-02-05T09:54:36.955Z,43.06
2023-02-05T09:59:44.414Z,41.45
2023-02-05T10:04:46.406Z,42.19
2023-02-05T10:10:05.177Z,41.96
2023-02-05T10:15:25.853Z,41.89
2023-02-05T10:20:42.088Z,42.63
2023-02-05T10:25:55.264Z,42.50
2023-02-05T10:31:06.265Z,42.37
2023-02-05T10:36:11.610Z,41.71
2023-02-05T10:41:23.040Z,42.54
2023-02-05T10:46:31.500Z,42.23
2023-02-05T10:51:40.847Z,41.30
2023-02-05T10:56:43.738Z,40.91
2023-02-05T11:01:46.493Z,41.11
2023-02-05T11:06:50.773Z,40.52
2023-02-05T11:12:05.274Z,40.55
2023-02-05T11:17:35.159Z,40.05
2023-02-05T11:22:39.982Z,39.86
2023-02-05T11:27:41.988Z,39.97
2023-02-05T11:32:44.309Z,40.80
2023-02-05T11:37:49.101Z,41.59
2023-02-05T11:43:26.438Z,41.41
2023-02-05T11:48:37.824Z,42.08
2023-02-05T11:53:50.669Z,41.78
2023-02-05T11:59:00.469Z,41.43
2023-02-05T12:04:15.094Z,40.65
2023-02-05T12:09:30.251Z,40.00
2023-02-05T12:14:42.341Z,40.30
2023-02-05T12:19:50.027Z,39.63
2023-02-05T12:25:14.459Z,39.65
2023-02-05T12:30:25.101Z,40.64
2023-02-05T12:35:26.983Z,40.05
2023-02-05T12:40:34.559Z,39.00
2023-02-05T12:45:51.507Z,39.81
2023-02-05T12:51:31.142Z,40.10
2023-02-05T12:56:58.474Z,40.45
2023-02-05T13:02:07.647Z,39.96
2023-02-05T13:07:28.158Z,41.61
2023-02-05T13:12:35.972Z,41.48
2023-02-05T13:18:00.773Z,41.63
2023-02-05T13:23:22.182Z,41.01
2023-02-05T13:28:42.229Z,40.64
2023-02-05T13:33:44.799Z,40.71
2023-02-05T13:39:24.364Z,40.49
2023-02-05T13:44:39.997Z,40.92
2023-02-05T13:50:14.331Z,40.50
2023-02-05T13:55:29.375Z,40.66
2023-02-05T14:00:32.289Z,40.49
2023-02-05T14:05:39.772Z,40.17
2023-02-05T14:10:49.485Z,40.47
2023-02-05T14:15:57.737Z,40.18
2023-02-05T14:20:59.605Z,40.01
2023-02-05T14:26:07.796Z,39.08
2023-02-05T14:31:46.153Z,38.73
2023-02-05T14:36:48.092Z,38.93
2023-02-05T14:41:56.137Z,38.96
2023-02-05T14:47:03.210Z,39.06
2023-02-05T14:52:27.158Z,39.01
2023-02-05T14:57:58.918Z,40.91
2023-02-05T15:03:13.181Z,49.08
2023-02-05T15:08:18.971Z,43.89
2023-02-05T15:13:22.854Z,42.86
2023-02-05T15:18:28.923Z,42.08
2023-02-05T15:23:40.990Z,41.19
2023-02-05T15:28:52.254Z,40.79
2023-02-05T15:34:03.002Z,40.55
2023-02-05T15:39:19.992Z,40.20
2023-02-05T15:44:31.048Z,39.53
2023-02-05T15:49:38.431Z,39.49
2023-02-05T15:54:40.744Z,39.13
2023-02-05T15:59:42.620Z,38.73
2023-02-05T16:04:45.013Z,38.80
2023-02-05T16:09:49.059Z,38.66
2023-02-05T16:15:02.024Z,39.02
2023-02-05T16:20:23.381Z,38.54
2023-02-05T16:25:46.509Z,38.53
2023-02-05T16:30:50.883Z,42.74
2023-02-05T16:35:53.644Z,42.68
2023-02-05T16:40:59.497Z,42.56
2023-02-05T16:46:07.544Z,43.08
2023-02-05T16:51:28.342Z,43.09
2023-02-05T16:56:36.551Z,41.90
2023-02-05T17:01:43.091Z,41.73
2023-02-05T17:06:44.928Z,44.24
2023-02-05T17:11:46.896Z,42.57
2023-02-05T17:17:03.016Z,42.00
2023-02-05T17:22:11.006Z,42.32
2023-02-05T17:27:27.118Z,41.62
2023-02-05T17:32:30.259Z,40.95
2023-02-05T17:37:32.048Z,40.88
2023-02-05T17:42:33.781Z,40.72
2023-02-05T17:47:35.755Z,40.35
2023-02-05T17:52:38.042Z,40.59
2023-02-05T17:57:40.933Z,41.04
2023-02-05T18:02:43.094Z,41.18
2023-02-05T18:07:57.068Z,40.89
2023-02-05T18:12:59.312Z,40.26
2023-02-05T18:18:01.428Z,45.50
2023-02-05T18:23:04.016Z,42.95
2023-02-05T18:28:06.150Z,42.47
2023-02-05T18:33:08.481Z,41.82
2023-02-05T18:38:10.426Z,45.08
2023-02-05T18:43:13.461Z,45.29
2023-02-05T18:48:15.624Z,44.84
2023-02-05T18:53:17.466Z,42.53
2023-02-05T18:58:19.324Z,41.84
2023-02-05T19:03:21.263Z,41.13
2023-02-05T19:08:23.380Z,40.78
2023-02-05T19:13:25.122Z,40.54
2023-02-05T19:18:26.894Z,40.22
2023-02-05T19:23:29.298Z,39.85
2023-02-05T19:28:32.634Z,39.68
2023-02-05T19:33:35.800Z,39.55
2023-02-05T19:38:40.025Z,39.22
2023-02-05T19:43:52.122Z,38.99
2023-02-05T19:48:56.148Z,39.10
2023-02-05T19:53:59.779Z,38.96
2023-02-05T19:59:02.056Z,38.65
2023-02-05T20:04:17.587Z,38.86
2023-02-05T20:09:20.134Z,39.28
2023-02-05T20:14:23.351Z,51.73
2023-02-05T20:19:25.301Z,45.65
2023-02-05T20:24:27.468Z,45.22
2023-02-05T20:29:48.205Z,43.63
2023-02-05T20:34:50.534Z,42.59
2023-02-05T20:39:52.451Z,41.58
2023-02-05T20:44:54.484Z,41.08
2023-02-05T20:49:56.418Z,40.55
2023-02-05T20:54:58.412Z,39.93
2023-02-05T21:00:00.232Z,39.90
2023-02-05T21:05:02.278Z,39.66
2023-02-05T21:10:05.942Z,39.14
2023-02-05T21:15:08.274Z,39.13
2023-02-05T21:20:10.573Z,38.83
2023-02-05T21:25:12.311Z,38.66
2023-02-05T21:30:14.335Z,38.56
2023-02-05T21:35:16.476Z,38.46
2023-02-05T21:40:18.650Z,38.78
2023-02-05T21:45:20.649Z,38.83
2023-02-05T21:50:22.553Z,55.61
2023-02-05T21:55:27.336Z,53.05
2023-02-05T22:00:29.229Z,52.20
2023-02-05T22:05:31.313Z,52.70
2023-02-05T22:10:33.616Z,48.82
2023-02-05T22:15:36.067Z,46.86
2023-02-05T22:20:38.493Z,45.42
2023-02-05T22:25:46.589Z,44.10
2023-02-05T22:30:48.693Z,43.10
2023-02-05T22:35:54.284Z,42.30
2023-02-05T22:40:56.157Z,41.77
2023-02-05T22:46:06.506Z,40.96
2023-02-05T22:51:11.305Z,40.69
2023-02-05T22:56:13.718Z,40.28
2023-02-05T23:01:17.363Z,39.77
2023-02-05T23:06:32.710Z,39.12
2023-02-05T23:11:35.888Z,39.02
2023-02-05T23:16:41.433Z,38.83
2023-02-05T23:21:43.876Z,38.79
2023-02-05T23:26:48.625Z,38.47
2023-02-05T23:31:50.535Z,38.49
2023-02-05T23:36:52.536Z,38.33
2023-02-05T23:41:54.271Z,38.14
2023-02-05T23:46:56.212Z,37.98
2023-02-05T23:51:58.576Z,37.99
2023-02-05T23:57:00.408Z,37.71
